TimeCST,TemperatureF,Dew PointF,Humidity,Sea Level PressureIn,VisibilityMPH,Wind Direction,Wind SpeedMPH,Gust SpeedMPH,PrecipitationIn,Events,Conditions,WindDirDegrees,DateUTC
12:55 AM,50.4,47.5,90,30.32,10.0,West,6.9,-,N/A,,Clear,270,2013-01-24 06:55:00
1:55 AM,50.5,48.0,91,30.31,10.0,West,5.8,-,N/A,,Clear,270,2013-01-24 07:55:00
2:55 AM,48.7,46.2,91,30.30,10.0,West,8.1,-,N/A,,Clear,270,2013-01-24 08:55:00
3:55 AM,48.7,47.1,94,30.30,10.0,West,5.8,-,N/A,,Clear,280,2013-01-24 09:55:00
4:55 AM,48.2,46.8,95,30.31,10.0,WNW,5.8,-,N/A,,Clear,290,2013-01-24 10:55:00
5:56 AM,48.7,47.7,96,30.33,10.0,WNW,4.6,-,N/A,,Clear,290,2013-01-24 11:56:00
6:55 AM,48.2,47.3,97,30.32,10.0,WNW,5.8,-,N/A,,Clear,290,2013-01-24 12:55:00
7:55 AM,53.4,52.2,95,30.33,10.0,West,6.9,-,N/A,,Clear,280,2013-01-24 13:55:00
8:55 AM,60.1,52.0,75,30.35,10.0,West,10.4,-,N/A,,Partly Cloudy,280,2013-01-24 14:55:00
9:59 AM,66.7,51.8,59,30.35,10.0,WNW,11.5,-,N/A,,Partly Cloudy,290,2013-01-24 15:59:00
10:32 AM,68.0,51.8,56,30.33,10.0,West,15.0,-,N/A,,Partly Cloudy,280,2013-01-24 16:32:00
10:55 AM,69.4,51.8,53,30.34,10.0,WNW,15.0,21.9,N/A,,Partly Cloudy,290,2013-01-24 16:55:00
11:55 AM,71.2,51.4,50,30.31,10.0,WNW,11.5,-,N/A,,Scattered Clouds,300,2013-01-24 17:55:00
12:55 PM,71.6,49.1,45,30.28,10.0,SW,6.9,-,N/A,,Scattered Clouds,230,2013-01-24 18:55:00
1:55 PM,68.9,54.5,60,30.26,10.0,WSW,13.8,19.6,N/A,,Scattered Clouds,240,2013-01-24 19:55:00
2:55 PM,68.5,54.3,60,30.26,10.0,WSW,10.4,-,N/A,,Scattered Clouds,240,2013-01-24 20:55:00
3:55 PM,66.7,54.3,64,30.25,10.0,WSW,9.2,-,N/A,,Mostly Cloudy,250,2013-01-24 21:55:00
4:56 PM,65.5,54.9,68,30.26,10.0,WSW,4.6,-,N/A,,Mostly Cloudy,250,2013-01-24 22:56:00
5:56 PM,61.9,54.7,77,30.27,10.0,SW,4.6,-,N/A,,Scattered Clouds,230,2013-01-24 23:56:00
6:56 PM,60.3,54.3,81,30.28,10.0,West,5.8,-,N/A,,Mostly Cloudy,260,2013-01-25 00:56:00
7:56 PM,57.4,52.5,84,30.29,10.0,WNW,4.6,-,N/A,,Scattered Clouds,290,2013-01-25 01:56:00
8:56 PM,56.1,52.2,87,30.30,10.0,West,6.9,-,N/A,,Partly Cloudy,280,2013-01-25 02:56:00
9:56 PM,56.1,52.2,87,30.30,10.0,SE,2.3,-,N/A,,Partly Cloudy,140,2013-01-25 03:56:00
10:55 PM,53.2,51.1,92,30.30,10.0,NE,1.2,-,N/A,,Partly Cloudy,40,2013-01-25 04:55:00
11:55 PM,51.6,50.2,95,30.29,10.0,NE,4.6,-,N/A,,Partly Cloudy,40,2013-01-25 05:55:00